Current Weather

Nairobi Jkia

Nairobi Jkia, Kenya (HKJK)

Report from: Tuesday, July 16, 2024 9:30 AM EAT
Current time: Tuesday, July 16, 2024 6:19 PM EAT

Nearby weather – Weather history – Daily summaries
Weather forecast

Temperature16.0°C (60.8°F)
Dew point14.0°C (57.2°F)
Winds 6 kts (3.1 m/s, 6.9 mph) Vrb
Winds variableWinds variable from South-Southeast (150°) to South-Southwest (210°)
Visibility6.2 mi. (10 km)
Clouds Ceiling: Broken clouds 1,600 ft. (488 m)
Overcast 8,000 ft. (2,438 m)
Altimeter30.27 in.Hg (1025 mB)
Relative humidity88 %
Density altitude-56 ft. (-17 m)
Remarks No significant changes expected in the next two hours
Flight conditions Marginal Visual Meteorological Conditions
Raw dataHKJK 160630Z 18006KT 150V210 9999 BKN016 OVC080 16/14 Q1025 NOSIG
An error has occurred. This application may no longer respond until reloaded. Reload 🗙